sensor_id;sensor_type;location;lat;lon;timestamp;pressure;altitude;pressure_sealevel;temperature;humidity
41254;BME280;26987;59.928;30.306;2022-11-15T11:11:46;101302.88;;;0.37;100.00
41254;BME280;26987;59.928;30.306;2022-11-15T11:14:20;101302.75;;;0.39;100.00
41254;BME280;26987;59.928;30.306;2022-11-15T11:16:51;101302.53;;;0.30;100.00
41254;BME280;26987;59.928;30.306;2022-11-15T11:22:28;101312.25;;;0.30;100.00
41254;BME280;26987;59.928;30.306;2022-11-15T11:25:24;101321.72;;;0.32;100.00
41254;BME280;26987;59.928;30.306;2022-11-15T11:28:05;101317.41;;;0.31;100.00
41254;BME280;26987;59.928;30.306;2022-11-15T11:30:47;101321.00;;;0.30;100.00
41254;BME280;26987;59.928;30.306;2022-11-15T11:33:18;101324.00;;;0.37;100.00
41254;BME280;26987;59.928;30.306;2022-11-15T11:35:58;101329.72;;;0.42;100.00
41254;BME280;26987;59.928;30.306;2022-11-15T11:38:37;101330.69;;;0.41;100.00
41254;BME280;26987;59.928;30.306;2022-11-15T11:41:15;101318.47;;;0.29;100.00
41254;BME280;26987;59.928;30.306;2022-11-15T11:43:54;101322.94;;;0.28;100.00
41254;BME280;26987;59.928;30.306;2022-11-15T11:46:44;101335.28;;;0.28;100.00
41254;BME280;26987;59.928;30.306;2022-11-15T11:49:19;101329.56;;;0.22;100.00
41254;BME280;26987;59.928;30.306;2022-11-15T11:51:51;101339.50;;;0.19;100.00
41254;BME280;26987;59.928;30.306;2022-11-15T11:54:28;101323.22;;;0.14;100.00
41254;BME280;26987;59.928;30.306;2022-11-15T11:57:04;101338.66;;;0.18;100.00
41254;BME280;26987;59.928;30.306;2022-11-15T11:59:39;101341.78;;;0.23;100.00
41254;BME280;26987;59.928;30.306;2022-11-15T12:02:14;101330.41;;;0.11;100.00
41254;BME280;26987;59.928;30.306;2022-11-15T12:04:47;101338.28;;;0.23;100.00
41254;BME280;26987;59.928;30.306;2022-11-15T12:07:20;101331.59;;;0.19;100.00
41254;BME280;26987;59.928;30.306;2022-11-15T12:09:54;101352.66;;;0.30;100.00
41254;BME280;26987;59.928;30.306;2022-11-15T12:12:31;101339.59;;;0.29;100.00
41254;BME280;26987;59.928;30.306;2022-11-15T12:15:11;101354.59;;;0.28;100.00
41254;BME280;26987;59.928;30.306;2022-11-15T12:17:40;101357.38;;;0.27;100.00
41254;BME280;26987;59.928;30.306;2022-11-15T12:20:15;101341.16;;;0.31;100.00
41254;BME280;26987;59.928;30.306;2022-11-15T12:22:48;101348.59;;;0.26;100.00
41254;BME280;26987;59.928;30.306;2022-11-15T12:25:20;101356.28;;;0.29;100.00
41254;BME280;26987;59.928;30.306;2022-11-15T12:27:54;101351.09;;;0.39;100.00
41254;BME280;26987;59.928;30.306;2022-11-15T12:30:27;101355.53;;;0.39;100.00
41254;BME280;26987;59.928;30.306;2022-11-15T12:32:57;101355.66;;;0.37;100.00
41254;BME280;26987;59.928;30.306;2022-11-15T12:35:31;101351.34;;;0.36;100.00
41254;BME280;26987;59.928;30.306;2022-11-15T12:38:00;101348.34;;;0.41;100.00
41254;BME280;26987;59.928;30.306;2022-11-15T12:40:33;101348.78;;;0.46;100.00
41254;BME280;26987;59.928;30.306;2022-11-15T12:46:14;101335.03;;;0.31;100.00
41254;BME280;26987;59.928;30.306;2022-11-15T12:48:54;101343.81;;;0.31;100.00
41254;BME280;26987;59.928;30.306;2022-11-15T12:54:55;101359.34;;;0.46;100.00
41254;BME280;26987;59.928;30.306;2022-11-15T12:57:41;101367.25;;;0.46;100.00
41254;BME280;26987;59.928;30.306;2022-11-15T13:03:19;101339.94;;;0.35;100.00
41254;BME280;26987;59.928;30.306;2022-11-15T13:08:59;101376.03;;;0.46;100.00
41254;BME280;26987;59.928;30.306;2022-11-15T13:11:47;101375.44;;;0.43;100.00
41254;BME280;26987;59.928;30.306;2022-11-15T13:17:29;101384.06;;;0.45;100.00
41254;BME280;26987;59.928;30.306;2022-11-15T13:20:07;101393.19;;;0.41;100.00
41254;BME280;26987;59.928;30.306;2022-11-15T13:22:41;101390.06;;;0.35;100.00
41254;BME280;26987;59.928;30.306;2022-11-15T13:25:25;101371.16;;;0.19;100.00
41254;BME280;26987;59.928;30.306;2022-11-15T13:27:55;101393.94;;;0.31;100.00
41254;BME280;26987;59.928;30.306;2022-11-15T13:30:26;101402.91;;;0.29;100.00
41254;BME280;26987;59.928;30.306;2022-11-15T13:32:55;101410.47;;;0.33;100.00
41254;BME280;26987;59.928;30.306;2022-11-15T13:35:26;101414.78;;;0.34;100.00
41254;BME280;26987;59.928;30.306;2022-11-15T13:37:55;101414.31;;;0.29;100.00
41254;BME280;26987;59.928;30.306;2022-11-15T13:40:26;101407.94;;;0.32;100.00
41254;BME280;26987;59.928;30.306;2022-11-15T13:42:57;101417.91;;;0.28;100.00
41254;BME280;26987;59.928;30.306;2022-11-15T13:45:25;101419.72;;;0.28;100.00
41254;BME280;26987;59.928;30.306;2022-11-15T13:47:55;101412.41;;;0.31;100.00
41254;BME280;26987;59.928;30.306;2022-11-15T13:50:27;101421.25;;;0.30;100.00
41254;BME280;26987;59.928;30.306;2022-11-15T13:52:58;101425.72;;;0.30;100.00
41254;BME280;26987;59.928;30.306;2022-11-15T13:55:29;101416.72;;;0.32;100.00
41254;BME280;26987;59.928;30.306;2022-11-15T13:58:02;101416.34;;;0.37;100.00
41254;BME280;26987;59.928;30.306;2022-11-15T14:00:35;101421.25;;;0.30;100.00
41254;BME280;26987;59.928;30.306;2022-11-15T14:03:12;101399.84;;;0.12;100.00
41254;BME280;26987;59.928;30.306;2022-11-15T14:05:45;101403.06;;;0.27;100.00
41254;BME280;26987;59.928;30.306;2022-11-15T14:08:22;101425.72;;;0.30;100.00
41254;BME280;26987;59.928;30.306;2022-11-15T14:11:07;101434.22;;;0.33;100.00
41254;BME280;26987;59.928;30.306;2022-11-15T14:13:35;101429.94;;;0.21;100.00
41254;BME280;26987;59.928;30.306;2022-11-15T14:16:17;101447.63;;;0.30;100.00
41254;BME280;26987;59.928;30.306;2022-11-15T14:18:46;101441.19;;;0.23;100.00
41254;BME280;26987;59.928;30.306;2022-11-15T14:21:17;101452.47;;;0.25;100.00
41254;BME280;26987;59.928;30.306;2022-11-15T14:23:46;101447.31;;;0.23;100.00
41254;BME280;26987;59.928;30.306;2022-11-15T14:26:29;101455.06;;;0.36;100.00
41254;BME280;26987;59.928;30.306;2022-11-15T14:28:57;101459.16;;;0.29;100.00
41254;BME280;26987;59.928;30.306;2022-11-15T14:31:24;101465.66;;;0.25;100.00
41254;BME280;26987;59.928;30.306;2022-11-15T14:33:52;101463.13;;;0.23;100.00
41254;BME280;26987;59.928;30.306;2022-11-15T14:36:21;101471.16;;;0.22;100.00
41254;BME280;26987;59.928;30.306;2022-11-15T14:38:49;101478.34;;;0.20;100.00
41254;BME280;26987;59.928;30.306;2022-11-15T14:41:19;101469.97;;;0.15;100.00
41254;BME280;26987;59.928;30.306;2022-11-15T14:43:48;101489.38;;;0.25;100.00
41254;BME280;26987;59.928;30.306;2022-11-15T14:46:16;101468.75;;;0.19;100.00
41254;BME280;26987;59.928;30.306;2022-11-15T14:48:44;101496.72;;;0.33;100.00
41254;BME280;26987;59.928;30.306;2022-11-15T14:51:13;101504.25;;;0.26;100.00
41254;BME280;26987;59.928;30.306;2022-11-15T14:53:43;101501.03;;;0.34;100.00
41254;BME280;26987;59.928;30.306;2022-11-15T14:56:12;101506.53;;;0.31;100.00
41254;BME280;26987;59.928;30.306;2022-11-15T14:58:40;101517.31;;;0.28;100.00
41254;BME280;26987;59.928;30.306;2022-11-15T15:01:13;101502.59;;;0.25;100.00
41254;BME280;26987;59.928;30.306;2022-11-15T15:03:41;101519.38;;;0.24;100.00
41254;BME280;26987;59.928;30.306;2022-11-15T15:06:10;101525.34;;;0.26;100.00
41254;BME280;26987;59.928;30.306;2022-11-15T15:08:39;101525.34;;;0.26;100.00
41254;BME280;26987;59.928;30.306;2022-11-15T15:11:10;101522.72;;;0.26;100.00
41254;BME280;26987;59.928;30.306;2022-11-15T15:13:41;101534.47;;;0.22;100.00
41254;BME280;26987;59.928;30.306;2022-11-15T15:16:09;101515.16;;;0.10;100.00
41254;BME280;26987;59.928;30.306;2022-11-15T15:18:37;101532.56;;;0.24;100.00
41254;BME280;26987;59.928;30.306;2022-11-15T15:21:16;101545.75;;;0.35;100.00
41254;BME280;26987;59.928;30.306;2022-11-15T15:23:46;101561.34;;;0.27;100.00
41254;BME280;26987;59.928;30.306;2022-11-15T15:26:15;101569.38;;;0.26;100.00
41254;BME280;26987;59.928;30.306;2022-11-15T15:28:43;101563.63;;;0.20;100.00
41254;BME280;26987;59.928;30.306;2022-11-15T15:31:10;101545.16;;;0.09;100.00
41254;BME280;26987;59.928;30.306;2022-11-15T15:33:39;101552.94;;;0.10;100.00
41254;BME280;26987;59.928;30.306;2022-11-15T15:36:10;101567.81;;;0.11;100.00
41254;BME280;26987;59.928;30.306;2022-11-15T15:38:38;101564.94;;;0.15;100.00
41254;BME280;26987;59.928;30.306;2022-11-15T15:41:09;101558.34;;;0.09;100.00
41254;BME280;26987;59.928;30.306;2022-11-15T15:43:38;101557.59;;;0.07;100.00
41254;BME280;26987;59.928;30.306;2022-11-15T15:46:08;101538.50;;;-0.08;100.00
41254;BME280;26987;59.928;30.306;2022-11-15T15:48:37;101554.72;;;0.10;100.00
41254;BME280;26987;59.928;30.306;2022-11-15T15:51:05;101555.69;;;0.09;100.00
41254;BME280;26987;59.928;30.306;2022-11-15T15:53:34;101556.78;;;0.18;100.00
41254;BME280;26987;59.928;30.306;2022-11-15T15:56:02;101569.63;;;0.22;100.00
41254;BME280;26987;59.928;30.306;2022-11-15T15:58:30;101559.19;;;0.21;100.00
41254;BME280;26987;59.928;30.306;2022-11-15T16:01:00;101555.22;;;0.27;100.00
41254;BME280;26987;59.928;30.306;2022-11-15T16:03:27;101549.59;;;0.31;100.00
41254;BME280;26987;59.928;30.306;2022-11-15T16:05:55;101551.03;;;0.35;100.00
41254;BME280;26987;59.928;30.306;2022-11-15T16:08:24;101547.91;;;0.30;100.00
41254;BME280;26987;59.928;30.306;2022-11-15T16:10:55;101546.97;;;0.31;100.00
41254;BME280;26987;59.928;30.306;2022-11-15T16:13:23;101523.56;;;0.27;100.00
41254;BME280;26987;59.928;30.306;2022-11-15T16:15:52;101551.75;;;0.49;100.00
41254;BME280;26987;59.928;30.306;2022-11-15T16:18:23;101522.38;;;0.31;100.00
41254;BME280;26987;59.928;30.306;2022-11-15T16:20:50;101521.06;;;0.25;100.00
41254;BME280;26987;59.928;30.306;2022-11-15T16:23:22;101548.63;;;0.44;100.00
41254;BME280;26987;59.928;30.306;2022-11-15T16:25:52;101558.34;;;0.43;100.00
41254;BME280;26987;59.928;30.306;2022-11-15T16:28:23;101509.03;;;0.09;100.00
41254;BME280;26987;59.928;30.306;2022-11-15T16:30:59;101558.47;;;0.42;100.00
41254;BME280;26987;59.928;30.306;2022-11-15T16:33:29;101572.63;;;0.41;100.00
41254;BME280;26987;59.928;30.306;2022-11-15T16:35:56;101565.78;;;0.38;100.00
41254;BME280;26987;59.928;30.306;2022-11-15T16:38:24;101568.41;;;0.38;100.00
41254;BME280;26987;59.928;30.306;2022-11-15T16:40:52;101563.50;;;0.33;100.00
41254;BME280;26987;59.928;30.306;2022-11-15T16:43:19;101572.25;;;0.45;100.00
41254;BME280;26987;59.928;30.306;2022-11-15T16:45:48;101578.53;;;0.56;100.00
41254;BME280;26987;59.928;30.306;2022-11-15T16:48:21;101584.03;;;0.64;100.00
41254;BME280;26987;59.928;30.306;2022-11-15T16:50:54;101575.25;;;0.63;100.00
41254;BME280;26987;59.928;30.306;2022-11-15T16:53:22;101585.81;;;0.63;100.00
41254;BME280;26987;59.928;30.306;2022-11-15T16:55:50;101583.41;;;0.60;100.00
41254;BME280;26987;59.928;30.306;2022-11-15T16:58:18;101597.22;;;0.64;100.00
41254;BME280;26987;59.928;30.306;2022-11-15T17:00:49;101592.69;;;0.66;100.00
41254;BME280;26987;59.928;30.306;2022-11-15T17:03:17;101588.22;;;0.67;100.00
41254;BME280;26987;59.928;30.306;2022-11-15T17:05:45;101579.09;;;0.59;100.00
41254;BME280;26987;59.928;30.306;2022-11-15T17:08:14;101593.13;;;0.71;100.00
41254;BME280;26987;59.928;30.306;2022-11-15T17:10:41;101594.81;;;0.72;100.00
41254;BME280;26987;59.928;30.306;2022-11-15T17:13:10;101575.13;;;0.65;100.00
41254;BME280;26987;59.928;30.306;2022-11-15T17:15:38;101599.72;;;0.77;100.00
41254;BME280;26987;59.928;30.306;2022-11-15T17:18:09;101596.84;;;0.80;100.00
41254;BME280;26987;59.928;30.306;2022-11-15T17:20:37;101586.19;;;0.70;100.00
41254;BME280;26987;59.928;30.306;2022-11-15T17:23:04;101591.22;;;0.73;100.00
41254;BME280;26987;59.928;30.306;2022-11-15T17:25:38;101605.75;;;0.79;100.00
41254;BME280;26987;59.928;30.306;2022-11-15T17:28:06;101593.97;;;0.83;100.00
41254;BME280;26987;59.928;30.306;2022-11-15T17:30:34;101584.38;;;0.82;100.00
41254;BME280;26987;59.928;30.306;2022-11-15T17:33:02;101601.41;;;0.90;100.00
41254;BME280;26987;59.928;30.306;2022-11-15T17:35:30;101587.88;;;0.83;100.00
41254;BME280;26987;59.928;30.306;2022-11-15T17:37:58;101600.69;;;0.87;100.00
41254;BME280;26987;59.928;30.306;2022-11-15T17:40:25;101608.00;;;0.95;100.00
41254;BME280;26987;59.928;30.306;2022-11-15T17:42:54;101604.31;;;0.98;100.00
41254;BME280;26987;59.928;30.306;2022-11-15T17:45:22;101595.41;;;0.87;100.00
41254;BME280;26987;59.928;30.306;2022-11-15T17:47:50;101596.38;;;0.86;100.00
41254;BME280;26987;59.928;30.306;2022-11-15T17:50:19;101602.16;;;0.92;100.00
41254;BME280;26987;59.928;30.306;2022-11-15T17:52:46;101598.28;;;0.96;100.00
41254;BME280;26987;59.928;30.306;2022-11-15T17:55:14;101613.78;;;1.00;100.00
41254;BME280;26987;59.928;30.306;2022-11-15T17:57:42;101612.56;;;1.05;100.00
41254;BME280;26987;59.928;30.306;2022-11-15T18:00:13;101609.94;;;1.05;100.00
41254;BME280;26987;59.928;30.306;2022-11-15T18:02:40;101614.97;;;1.08;100.00
41254;BME280;26987;59.928;30.306;2022-11-15T18:05:08;101610.16;;;1.02;100.00
41254;BME280;26987;59.928;30.306;2022-11-15T18:07:36;101615.56;;;1.11;100.00
41254;BME280;26987;59.928;30.306;2022-11-15T18:10:04;101619.16;;;1.10;100.00
41254;BME280;26987;59.928;30.306;2022-11-15T18:12:32;101625.63;;;1.18;100.00
41254;BME280;26987;59.928;30.306;2022-11-15T18:15:00;101593.47;;;1.01;100.00
41254;BME280;26987;59.928;30.306;2022-11-15T18:17:29;101622.03;;;1.19;100.00
41254;BME280;26987;59.928;30.306;2022-11-15T18:19:56;101605.25;;;1.08;100.00
41254;BME280;26987;59.928;30.306;2022-11-15T18:22:24;101616.50;;;1.22;100.00
41254;BME280;26987;59.928;30.306;2022-11-15T18:24:52;101623.72;;;1.20;100.00
41254;BME280;26987;59.928;30.306;2022-11-15T18:27:19;101625.88;;;1.15;100.00
41254;BME280;26987;59.928;30.306;2022-11-15T18:29:47;101619.88;;;1.12;100.00
41254;BME280;26987;59.928;30.306;2022-11-15T18:32:15;101623.22;;;1.15;100.00
41254;BME280;26987;59.928;30.306;2022-11-15T18:34:44;101626.13;;;1.11;100.00
41254;BME280;26987;59.928;30.306;2022-11-15T18:37:12;101619.53;;;1.06;100.00
41254;BME280;26987;59.928;30.306;2022-11-15T18:39:40;101615.44;;;1.02;100.00
41254;BME280;26987;59.928;30.306;2022-11-15T18:42:08;101619.41;;;1.07;100.00
41254;BME280;26987;59.928;30.306;2022-11-15T18:44:36;101606.56;;;1.03;100.00
41254;BME280;26987;59.928;30.306;2022-11-15T18:47:04;101620.13;;;1.09;100.00
41254;BME280;26987;59.928;30.306;2022-11-15T18:49:31;101622.28;;;1.16;100.00
41254;BME280;26987;59.928;30.306;2022-11-15T18:52:00;101630.91;;;1.18;100.00
41254;BME280;26987;59.928;30.306;2022-11-15T18:54:28;101624.69;;;1.19;100.00
41254;BME280;26987;59.928;30.306;2022-11-15T18:56:57;101623.94;;;1.17;100.00
41254;BME280;26987;59.928;30.306;2022-11-15T18:59:24;101609.81;;;1.06;100.00
41254;BME280;26987;59.928;30.306;2022-11-15T19:01:52;101630.91;;;1.29;100.00
41254;BME280;26987;59.928;30.306;2022-11-15T19:04:21;101627.78;;;1.24;100.00
41254;BME280;26987;59.928;30.306;2022-11-15T19:06:49;101642.16;;;1.31;100.00
41254;BME280;26987;59.928;30.306;2022-11-15T19:09:19;101642.16;;;1.31;100.00
41254;BME280;26987;59.928;30.306;2022-11-15T19:11:49;101628.84;;;1.33;100.00
41254;BME280;26987;59.928;30.306;2022-11-15T19:14:17;101627.53;;;1.27;100.00
41254;BME280;26987;59.928;30.306;2022-11-15T19:16:49;101636.88;;;1.31;100.00
41254;BME280;26987;59.928;30.306;2022-11-15T19:19:18;101623.84;;;1.18;100.00
41254;BME280;26987;59.928;30.306;2022-11-15T19:21:46;101644.13;;;1.29;100.00
41254;BME280;26987;59.928;30.306;2022-11-15T19:24:14;101654.81;;;1.28;100.00
41254;BME280;26987;59.928;30.306;2022-11-15T19:26:43;101644.38;;;1.26;100.00
41254;BME280;26987;59.928;30.306;2022-11-15T19:29:11;101647.25;;;1.23;100.00
41254;BME280;26987;59.928;30.306;2022-11-15T19:31:40;101641.03;;;1.12;100.00
41254;BME280;26987;59.928;30.306;2022-11-15T19:34:08;101642.56;;;1.15;100.00
41254;BME280;26987;59.928;30.306;2022-11-15T19:36:37;101654.31;;;1.22;100.00
41254;BME280;26987;59.928;30.306;2022-11-15T19:39:07;101634.06;;;1.11;100.00
41254;BME280;26987;59.928;30.306;2022-11-15T19:41:38;101628.06;;;1.09;100.00
41254;BME280;26987;59.928;30.306;2022-11-15T19:44:09;101648.06;;;1.35;100.00
41254;BME280;26987;59.928;30.306;2022-11-15T19:46:37;101647.69;;;1.28;100.00
41254;BME280;26987;59.928;30.306;2022-11-15T19:49:06;101644.38;;;1.26;100.00
41254;BME280;26987;59.928;30.306;2022-11-15T19:51:35;101673.53;;;1.36;100.00
41254;BME280;26987;59.928;30.306;2022-11-15T19:54:04;101663.56;;;1.28;100.00
41254;BME280;26987;59.928;30.306;2022-11-15T19:56:34;101666.69;;;1.33;100.00
41254;BME280;26987;59.928;30.306;2022-11-15T19:59:03;101675.09;;;1.27;100.00
41254;BME280;26987;59.928;30.306;2022-11-15T20:01:34;101665.38;;;1.16;100.00
41254;BME280;26987;59.928;30.306;2022-11-15T20:04:04;101674.88;;;1.19;100.00
41254;BME280;26987;59.928;30.306;2022-11-15T20:06:35;101683.03;;;1.27;100.00
41254;BME280;26987;59.928;30.306;2022-11-15T20:09:04;101681.56;;;1.34;100.00
41254;BME280;26987;59.928;30.306;2022-11-15T20:11:32;101684.69;;;1.40;100.00
41254;BME280;26987;59.928;30.306;2022-11-15T20:14:03;101685.91;;;1.35;100.00
41254;BME280;26987;59.928;30.306;2022-11-15T20:16:33;101682.78;;;1.30;100.00
41254;BME280;26987;59.928;30.306;2022-11-15T20:19:00;101679.69;;;1.25;100.00
41254;BME280;26987;59.928;30.306;2022-11-15T20:21:28;101678.22;;;1.21;100.00
41254;BME280;26987;59.928;30.306;2022-11-15T20:23:56;101663.13;;;1.11;100.00
41254;BME280;26987;59.928;30.306;2022-11-15T20:26:23;101679.81;;;1.23;100.00
41254;BME280;26987;59.928;30.306;2022-11-15T20:28:51;101680.38;;;1.27;100.00
41254;BME280;26987;59.928;30.306;2022-11-15T20:31:20;101687.09;;;1.31;100.00
41254;BME280;26987;59.928;30.306;2022-11-15T20:33:50;101673.28;;;1.39;100.00
41254;BME280;26987;59.928;30.306;2022-11-15T20:36:18;101674.81;;;1.42;100.00
41254;BME280;26987;59.928;30.306;2022-11-15T20:38:45;101681.31;;;1.49;100.00
41254;BME280;26987;59.928;30.306;2022-11-15T20:41:13;101686.25;;;1.54;100.00
41254;BME280;26987;59.928;30.306;2022-11-15T20:43:41;101680.44;;;1.60;100.00
41254;BME280;26987;59.928;30.306;2022-11-15T20:46:10;101687.06;;;1.66;100.00
41254;BME280;26987;59.928;30.306;2022-11-15T20:48:38;101681.78;;;1.66;100.00
41254;BME280;26987;59.928;30.306;2022-11-15T20:51:10;101664.00;;;1.56;100.00
41254;BME280;26987;59.928;30.306;2022-11-15T20:53:39;101686.34;;;1.63;100.00
41254;BME280;26987;59.928;30.306;2022-11-15T20:56:09;101682.25;;;1.59;100.00
41254;BME280;26987;59.928;30.306;2022-11-15T20:58:38;101673.97;;;1.53;100.00
41254;BME280;26987;59.928;30.306;2022-11-15T21:01:06;101688.03;;;1.53;100.00
41254;BME280;26987;59.928;30.306;2022-11-15T21:03:34;101682.31;;;1.36;100.00
41254;BME280;26987;59.928;30.306;2022-11-15T21:06:02;101679.69;;;1.25;100.00
41254;BME280;26987;59.928;30.306;2022-11-15T21:08:32;101688.06;;;1.30;100.00
41254;BME280;26987;59.928;30.306;2022-11-15T21:11:18;101674.75;;;1.09;100.00
41254;BME280;26987;59.928;30.306;2022-11-15T21:14:05;101667.09;;;0.83;100.00
41254;BME280;26987;59.928;30.306;2022-11-15T21:16:33;101676.06;;;0.80;100.00
41254;BME280;26987;59.928;30.306;2022-11-15T21:19:00;101683.06;;;0.81;100.00
41254;BME280;26987;59.928;30.306;2022-11-15T21:21:28;101688.34;;;0.81;100.00
41254;BME280;26987;59.928;30.306;2022-11-15T21:23:57;101679.69;;;0.79;100.00
41254;BME280;26987;59.928;30.306;2022-11-15T21:26:25;101686.16;;;0.86;100.00
41254;BME280;26987;59.928;30.306;2022-11-15T21:28:52;101677.66;;;0.83;100.00
41254;BME280;26987;59.928;30.306;2022-11-15T21:31:20;101689.41;;;0.90;100.00
41254;BME280;26987;59.928;30.306;2022-11-15T21:33:48;101671.41;;;0.84;100.00
41254;BME280;26987;59.928;30.306;2022-11-15T21:36:15;101696.59;;;0.99;100.00
41254;BME280;26987;59.928;30.306;2022-11-15T21:38:43;101691.94;;;1.03;100.00
41254;BME280;26987;59.928;30.306;2022-11-15T21:41:12;101684.25;;;1.11;100.00
41254;BME280;26987;59.928;30.306;2022-11-15T21:43:40;101682.44;;;1.12;100.00
41254;BME280;26987;59.928;30.306;2022-11-15T21:46:08;101688.22;;;1.17;100.00
41254;BME280;26987;59.928;30.306;2022-11-15T21:48:36;101692.41;;;1.20;100.00
41254;BME280;26987;59.928;30.306;2022-11-15T21:51:05;101680.06;;;1.20;100.00
41254;BME280;26987;59.928;30.306;2022-11-15T21:53:33;101678.22;;;1.21;100.00
41254;BME280;26987;59.928;30.306;2022-11-15T21:56:02;101696.59;;;1.22;100.00
41254;BME280;26987;59.928;30.306;2022-11-15T21:58:31;101683.28;;;1.24;100.00
41254;BME280;26987;59.928;30.306;2022-11-15T22:00:59;101680.16;;;1.19;100.00
41254;BME280;26987;59.928;30.306;2022-11-15T22:03:56;101693.72;;;1.25;100.00
41254;BME280;26987;59.928;30.306;2022-11-15T22:06:23;101687.72;;;1.23;100.00
41254;BME280;26987;59.928;30.306;2022-11-15T22:08:51;101676.91;;;1.15;100.00
41254;BME280;26987;59.928;30.306;2022-11-15T22:11:19;101682.69;;;1.20;100.00
41254;BME280;26987;59.928;30.306;2022-11-15T22:13:48;101692.16;;;1.23;100.00
41254;BME280;26987;59.928;30.306;2022-11-15T22:16:16;101678.00;;;1.12;100.00
41254;BME280;26987;59.928;30.306;2022-11-15T22:18:43;101694.56;;;1.15;100.00
41254;BME280;26987;59.928;30.306;2022-11-15T22:21:12;101708.03;;;1.11;100.00
41254;BME280;26987;59.928;30.306;2022-11-15T22:23:41;101695.44;;;1.04;100.00
41254;BME280;26987;59.928;30.306;2022-11-15T22:26:12;101692.16;;;1.00;100.00
41254;BME280;26987;59.928;30.306;2022-11-15T22:28:41;101686.53;;;0.93;100.00
41254;BME280;26987;59.928;30.306;2022-11-15T22:31:10;101689.41;;;0.79;100.00
41254;BME280;26987;59.928;30.306;2022-11-15T22:33:38;101689.03;;;0.72;100.00
41254;BME280;26987;59.928;30.306;2022-11-15T22:36:07;101688.06;;;0.61;100.00
41254;BME280;26987;59.928;30.306;2022-11-15T22:38:35;101696.69;;;0.63;100.00
41254;BME280;26987;59.928;30.306;2022-11-15T22:41:03;101706.19;;;0.66;100.00
41254;BME280;26987;59.928;30.306;2022-11-15T22:43:30;101701.75;;;0.67;100.00
41254;BME280;26987;59.928;30.306;2022-11-15T22:45:59;101690.81;;;0.60;100.00
41254;BME280;26987;59.928;30.306;2022-11-15T22:48:29;101714.38;;;0.74;100.00
41254;BME280;26987;59.928;30.306;2022-11-15T22:50:58;101694.78;;;0.66;100.00
41254;BME280;26987;59.928;30.306;2022-11-15T22:53:26;101707.63;;;0.70;100.00
41254;BME280;26987;59.928;30.306;2022-11-15T22:55:55;101703.06;;;0.72;100.00
41254;BME280;26987;59.928;30.306;2022-11-15T22:58:25;101707.53;;;0.72;100.00
41254;BME280;26987;59.928;30.306;2022-11-15T23:00:55;101723.47;;;0.70;100.00
41254;BME280;26987;59.928;30.306;2022-11-15T23:03:24;101719.28;;;0.68;100.00
41254;BME280;26987;59.928;30.306;2022-11-15T23:05:54;101700.75;;;0.56;100.00
41254;BME280;26987;59.928;30.306;2022-11-15T23:08:22;101720.97;;;0.69;100.00
41254;BME280;26987;59.928;30.306;2022-11-15T23:10:50;101726.00;;;0.72;100.00
41254;BME280;26987;59.928;30.306;2022-11-15T23:13:35;101735.72;;;0.71;100.00
41254;BME280;26987;59.928;30.306;2022-11-15T23:16:05;101730.78;;;0.67;100.00
41254;BME280;26987;59.928;30.306;2022-11-15T23:18:57;101729.09;;;0.66;100.00
41254;BME280;26987;59.928;30.306;2022-11-15T23:21:28;101707.25;;;0.52;100.00
41254;BME280;26987;59.928;30.306;2022-11-15T23:24:14;101730.78;;;0.55;100.00
41254;BME280;26987;59.928;30.306;2022-11-15T23:26:43;101734.84;;;0.48;100.00
41254;BME280;26987;59.928;30.306;2022-11-15T23:29:12;101734.56;;;0.40;100.00
41254;BME280;26987;59.928;30.306;2022-11-15T23:31:40;101734.06;;;0.34;100.00
41254;BME280;26987;59.928;30.306;2022-11-15T23:34:26;101738.16;;;0.39;100.00
41254;BME280;26987;59.928;30.306;2022-11-15T23:36:55;101729.47;;;0.25;100.00
41254;BME280;26987;59.928;30.306;2022-11-15T23:39:23;101739.84;;;0.15;100.00
41254;BME280;26987;59.928;30.306;2022-11-15T23:41:51;101736.31;;;0.03;100.00
41254;BME280;26987;59.928;30.306;2022-11-15T23:44:18;101734.59;;;-0.09;100.00
41254;BME280;26987;59.928;30.306;2022-11-15T23:46:46;101732.84;;;-0.22;100.00
41254;BME280;26987;59.928;30.306;2022-11-15T23:49:14;101727.63;;;-0.35;100.00
41254;BME280;26987;59.928;30.306;2022-11-15T23:51:41;101733.72;;;-0.34;100.00
41254;BME280;26987;59.928;30.306;2022-11-15T23:54:11;101707.00;;;-0.54;100.00
41254;BME280;26987;59.928;30.306;2022-11-15T23:56:39;101721.13;;;-0.42;100.00
41254;BME280;26987;59.928;30.306;2022-11-15T23:59:06;101713.34;;;-0.57;100.00
